KAOH/AOH METAR and TAF weather

Enter ICAO airport designator
Station Type Date Time Source
KAOH METAR 2020/02/16 19:53 UTC NOAA

KAOH 161953Z AUTO 25009KT 10SM CLR 03/M02 A3008 RMK AO2 SLP194 T00331017


Station Type Date Time Source
KAOH Decoded METAR 2020/02/16 19:53 UTC NOAA

LIMA ALLEN COUNTY AIRPORT, OH, United States (KAOH) 40-42N 84-01W 296M
Feb 16, 2020 - 02:53 PM EST / 2020.02.16 1953 UTC
Wind: from the WSW (250 degrees) at 10 MPH (9 KT):0
Visibility: 10 mile(s):0
Sky conditions: clear
Temperature: 37.9 F (3.3 C)
Dew Point: 28.9 F (-1.7 C)
Relative Humidity: 69%
Pressure (altimeter): 30.08 in. Hg (1018 hPa)
ob: KAOH 161953Z AUTO 25009KT 10SM CLR 03/M02 A3008 RMK AO2 SLP194 T00331017
cycle: 20

Station Type Date Time Source
KAOH TAF UTC NOAA

Error!

Example: see airport list